Terminal Aerodrome Forecast
Issued by NWS Shreveport, LA

Home | Current Version | Previous Version | Text Only | Print | Product List | Glossary On
Versions: 1 2 3 4 5 6 7 8 9 10 11 12 13 14 15 16
000
FTUS44 KSHV 020700 AAA
TAFMLU
TAF AMD
KMLU 020737Z 0208/0306 18007KT P6SM OVC010
      TEMPO 0208/0210 5SM BR OVC008
     FM021000 17007KT 5SM BR OVC008
     FM021200 18005KT 2SM BR OVC004
     FM021400 19006KT 4SM BR FEW006 BKN015 OVC025
     FM021500 18006KT P6SM VCSH SCT015 BKN030
     FM021800 21011G17KT P6SM BKN050
     FM022000 20011KT P6SM BKN050 BKN100=

USA.gov is the U.S. government's official web portal to all federal, state and local government web resources and services.